Gulgong Post Office, Australia

2:53 AM AEDT on February 28, 2017 (GMT +1100)
Yarrawonga | | Change Station

Elev 1877 ft 32.34 °S, 149.68 °E | Updated 3 minutes ago

Clear
Clear
62.4 °F
Feels Like 62.4 °F
N
0.0
Wind Variable Wind from West
Gusts 1.0 mph

Today
High -- | Low -- °F
--% Chance of Precip.
Yesterday
High -- | Low -- °F
Precip. -- in
Pressure 30.12 in
Visibility 6.2 miles
Clouds
Dew Point 56 °F
Humidity 80%
Rainfall 0.00 in
Snow Depth Not available.
6:49 AM 7:38 PM
New Moon, 1% visible
METAR YSDU 271530Z AUTO 09009KT 9999 // NCD 19/12 Q1020 RF00.0////./
Pressure 30.12 in
Visibility 6.2 miles
Clouds
Dew Point 56 °F
Humidity 80%
Rainfall 0.00 in
Snow Depth Not available.
6:49 AM 7:38 PM
New Moon, 1% visible
METAR YSDU 271530Z AUTO 09009KT 9999 // NCD 19/12 Q1020 RF00.0////./

Get Your Daily Forecast Email!

Thanks for signing up!

Be on the lookout for a verification email in your inbox.

You'll start receiving the daily forecast at 8 AM.

×

10-Day Weather Forecast

×

Almanac

Astronomy

Feb. 28, 2017 Rise Set
Actual Time
Civil Twilight
Nautical Twilight
Astronomical Twilight
Moon
Length of Visible Light
Length of Day
Tomorrow will be .
, % of the Moon is Illuminated

Today's Extremes

Country Highs Country Lows

Community

WunderPhotos

Upload Photos

1,962,540 photos uploaded!

WunderBlog® & News

Nearby

Air Quality

  Air Quality AQ Index Pollutant
Not available.

Snow Depth

Station Depth Elevation

Earthquake Activity

City Distance Mag. Time & Date
Minimum magnitude displayed is 2.5.

Coastal Water Temperatures

Place Temperature

Stations

Nearby Weather Stations

Station Location Temp. Windchill Dew Point Humidity Wind Precip. Elev Updated Type